Time;durP1;ratioP1;P1;durP2;ratioP2;P2;SDS_P1;SDS_P2;PMS_P1;PMS_P2;Temp;Humidity;BMP_temperature;BMP_pressure;BME280_temperature;BME280_humidity;BME280_pressure;Samples;Min_cycle;Max_cycle;Signal;HPM_P1;HPM_P2
2023/10/27 05:18:55;;;;;;;;;;;;;;;;;;4323785;26;19925;-42
2023/10/27 05:21:26;;;;;;;;;;;;;;;;;;5010867;28;19918;-43
2023/10/27 05:23:52;;;;;;;;;;;;;;;;;;5010878;28;20211;-47
2023/10/27 05:26:18;;;;;;;;;;;;;;;;;;5010784;28;20002;-43
2023/10/27 05:28:44;;;;;;;;;;;;;;;;;;5010428;28;20429;-43
2023/10/27 05:31:10;;;;;;;;;;;;;;;;;;5010663;28;19921;-43
2023/10/27 05:33:35;;;;;;;;;;;;;;;;;;5010263;28;20392;-42
2023/10/27 05:36:01;;;;;;;;;;;;;;;;;;5009315;28;20019;-41
2023/10/27 05:38:29;;;;;;;;;;;;;;;;;;5010543;28;19909;-46
2023/10/27 05:40:55;;;;;;;;;;;;;;;;;;5010523;28;19929;-42
2023/10/27 05:43:21;;;;;;;;;;;;;;;;;;5010604;28;20278;-46
2023/10/27 05:45:47;;;;;;;;;;;;;;;;;;5010323;28;19909;-43
2023/10/27 05:48:13;;;;;;;;;;;;;;;;;;5010128;28;19949;-44
2023/10/27 05:50:39;;;;;;;;;;;;;;;;;;5010437;28;20410;-44
2023/10/27 05:53:05;;;;;;;;;;;;;;;;;;5010367;28;19916;-44
2023/10/27 05:55:31;;;;;;;;;;;;;;;;;;5010475;28;19960;-43
2023/10/27 05:57:56;;;;;;;;;;;;;;;;;;5010109;28;19909;-46
2023/10/27 06:00:22;;;;;;;;;;;;;;;;;;5010195;28;19913;-43
2023/10/27 06:02:52;;;;;;;;;;;;;;;;;;5010069;28;19910;-44
2023/10/27 06:05:18;;;;;;;;;;;;;;;;;;5010015;28;20378;-42
2023/10/27 06:07:44;;;;;;;;;;;;;;;;;;5011035;28;19916;-42
2023/10/27 06:10:10;;;;;;;;;;;;;;;;;;5014121;28;19937;-43
2023/10/27 06:12:37;;;;;;;;;;;;;;;;;;5011103;28;20501;-47
2023/10/27 06:15:02;;;;;;;;;;;;;;;;;;5012846;28;20370;-44
2023/10/27 06:17:29;;;;;;;;;;;;;;;;;;5011373;28;19928;-46
2023/10/27 06:19:55;;;;;;;;;;;;;;;;;;5010763;28;19925;-44
2023/10/27 06:22:21;;;;;;;;;;;;;;;;;;5011011;28;19983;-42
2023/10/27 06:24:47;;;;;;;;;;;;;;;;;;5011144;28;19949;-44
2023/10/27 06:27:13;;;;;;;;;;;;;;;;;;5010789;28;20309;-43
2023/10/27 06:29:39;;;;;;;;;;;;;;;;;;5010685;28;19913;-42
2023/10/27 06:32:05;;;;;;;;;;;;;;;;;;5010337;28;19975;-44
2023/10/27 06:34:31;;;;;;;;;;;;;;;;;;5010593;28;19941;-43
2023/10/27 06:36:58;;;;;;;;;;;;;;;;;;5010973;28;19916;-44
2023/10/27 06:39:24;;;;;;;;;;;;;;;;;;5010354;28;19952;-46
2023/10/27 06:41:50;;;;;;;;;;;;;;;;;;5010777;28;19944;-43
2023/10/27 06:44:17;;;;;;;;;;;;;;;;;;5010586;28;19910;-42
2023/10/27 06:46:44;;;;;;;;;;;;;;;;;;5010852;28;19945;-42
2023/10/27 06:49:10;;;;;;;;;;;;;;;;;;5010672;28;20008;-42
2023/10/27 06:51:36;;;;;;;;;;;;;;;;;;4992149;28;19922;-43
2023/10/27 06:54:01;;;;;;;;;;;;;;;;;;4991061;28;19910;-43
2023/10/27 06:56:28;;;;;;;;;;;;;;;;;;4991521;28;19910;-43
2023/10/27 06:58:54;;;;;;;;;;;;;;;;;;4991935;28;19914;-43
2023/10/27 07:01:19;;;;;;;;;;;;;;;;;;4991144;28;19957;-44
2023/10/27 07:03:45;;;;;;;;;;;;;;;;;;4998656;28;19920;-41
2023/10/27 07:06:11;;;;;;;;;;;;;;;;;;5010739;28;19948;-43
2023/10/27 07:08:37;;;;;;;;;;;;;;;;;;5010367;28;19910;-44
2023/10/27 07:11:03;;;;;;;;;;;;;;;;;;5009134;28;19921;-43
2023/10/27 07:13:30;;;;;;;;;;;;;;;;;;5010557;28;20286;-43
2023/10/27 07:15:56;;;;;;;;;;;;;;;;;;5010483;28;19914;-42
2023/10/27 07:18:21;;;;;;;;;;;;;;;;;;5010394;28;20230;-42
2023/10/27 07:20:47;;;;;;;;;;;;;;;;;;5009570;28;19922;-41
2023/10/27 07:23:13;;;;;;;;;;;;;;;;;;5015327;28;20348;-42
2023/10/27 07:25:39;;;;;;;;;;;;;;;;;;5003187;28;19913;-45
2023/10/27 07:28:05;;;;;;;;;;;;;;;;;;5011175;28;19921;-43
2023/10/27 07:30:31;;;;;;;;;;;;;;;;;;5015117;28;19914;-42
2023/10/27 07:32:57;;;;;;;;;;;;;;;;;;5005282;28;19946;-43
2023/10/27 07:35:22;;;;;;;;;;;;;;;;;;5002608;28;20421;-43
2023/10/27 07:37:49;;;;;;;;;;;;;;;;;;5015549;28;19913;-43
2023/10/27 07:40:18;;;;;;;;;;;;;;;;;;5012654;28;19961;-44
2023/10/27 07:42:43;;;;;;;;;;;;;;;;;;5017008;28;19913;-41
2023/10/27 07:45:09;;;;;;;;;;;;;;;;;;5013650;28;19917;-43
2023/10/27 07:47:35;;;;;;;;;;;;;;;;;;5001060;28;20374;-46
2023/10/27 07:50:01;;;;;;;;;;;;;;;;;;5014642;28;19948;-44
2023/10/27 07:52:27;;;;;;;;;;;;;;;;;;5009525;28;20434;-45
2023/10/27 07:54:53;;;;;;;;;;;;;;;;;;5004164;28;20012;-41
2023/10/27 07:57:19;;;;;;;;;;;;;;;;;;5013219;28;19983;-42
2023/10/27 07:59:45;;;;;;;;;;;;;;;;;;5012061;28;19937;-42
2023/10/27 08:02:11;;;;;;;;;;;;;;;;;;5019317;28;19913;-42
2023/10/27 08:04:37;;;;;;;;;;;;;;;;;;5013880;28;20431;-42
2023/10/27 08:07:03;;;;;;;;;;;;;;;;;;5013403;28;19913;-42
2023/10/27 08:09:29;;;;;;;;;;;;;;;;;;5005290;28;19914;-42
2023/10/27 08:11:55;;;;;;;;;;;;;;;;;;4994714;28;20012;-43
2023/10/27 08:14:21;;;;;;;;;;;;;;;;;;5013784;28;20044;-42
2023/10/27 08:16:47;;;;;;;;;;;;;;;;;;5013962;28;19916;-42
2023/10/27 08:19:12;;;;;;;;;;;;;;;;;;5014077;28;19928;-42
2023/10/27 08:21:38;;;;;;;;;;;;;;;;;;5013801;28;19964;-43
2023/10/27 08:24:04;;;;;;;;;;;;;;;;;;5013980;28;19916;-41
2023/10/27 08:26:30;;;;;;;;;;;;;;;;;;5013754;28;19910;-41
2023/10/27 08:28:56;;;;;;;;;;;;;;;;;;5013637;28;19992;-42
2023/10/27 08:31:22;;;;;;;;;;;;;;;;;;4996930;28;19918;-41
2023/10/27 08:33:48;;;;;;;;;;;;;;;;;;5004885;28;19968;-46
2023/10/27 08:36:15;;;;;;;;;;;;;;;;;;5011454;28;20297;-44
2023/10/27 08:38:41;;;;;;;;;;;;;;;;;;5011078;28;21549;-42
2023/10/27 08:41:07;;;;;;;;;;;;;;;;;;5011275;28;19940;-46
2023/10/27 08:43:34;;;;;;;;;;;;;;;;;;4998708;28;19949;-43
2023/10/27 08:46:00;;;;;;;;;;;;;;;;;;5004889;28;19929;-43
2023/10/27 08:48:26;;;;;;;;;;;;;;;;;;4996370;28;19918;-42
2023/10/27 08:50:52;;;;;;;;;;;;;;;;;;5012126;28;19913;-46
2023/10/27 08:53:17;;;;;;;;;;;;;;;;;;4997845;28;19914;-44
2023/10/27 08:55:44;;;;;;;;;;;;;;;;;;4999865;28;19961;-43
2023/10/27 08:58:10;;;;;;;;;;;;;;;;;;4993439;28;19913;-46
2023/10/27 09:00:36;;;;;;;;;;;;;;;;;;5007012;28;19921;-42
2023/10/27 09:03:02;;;;;;;;;;;;;;;;;;5011017;28;19924;-43
2023/10/27 09:05:28;;;;;;;;;;;;;;;;;;4993671;28;19914;-42
2023/10/27 09:07:54;;;;;;;;;;;;;;;;;;4993322;28;19909;-44
2023/10/27 09:10:20;;;;;;;;;;;;;;;;;;4994637;28;20304;-42
2023/10/27 09:12:47;;;;;;;;;;;;;;;;;;5010292;28;19914;-42
2023/10/27 09:15:13;;;;;;;;;;;;;;;;;;5012488;28;19964;-43
2023/10/27 09:17:39;;;;;;;;;;;;;;;;;;5010393;28;19910;-44
2023/10/27 09:20:05;;;;;;;;;;;;;;;;;;4993364;28;20001;-44
2023/10/27 09:22:31;;;;;;;;;;;;;;;;;;5008474;28;20412;-43
2023/10/27 09:24:57;;;;;;;;;;;;;;;;;;5012475;28;19917;-43
2023/10/27 09:27:23;;;;;;;;;;;;;;;;;;5002624;28;20008;-45
2023/10/27 09:29:51;;;;;;;;;;;;;;;;;;5005507;28;19940;-44
2023/10/27 09:32:17;;;;;;;;;;;;;;;;;;5009829;28;19914;-45
2023/10/27 09:34:43;;;;;;;;;;;;;;;;;;5011080;28;21206;-43
2023/10/27 09:37:09;;;;;;;;;;;;;;;;;;5010134;28;19918;-45
2023/10/27 09:39:36;;;;;;;;;;;;;;;;;;5011387;28;19948;-46
2023/10/27 09:42:02;;;;;;;;;;;;;;;;;;5008563;28;19913;-42
2023/10/27 09:44:28;;;;;;;;;;;;;;;;;;5002439;28;19940;-44
2023/10/27 09:46:54;;;;;;;;;;;;;;;;;;4998386;28;20362;-43
2023/10/27 09:49:19;;;;;;;;;;;;;;;;;;5010593;28;20023;-42
2023/10/27 09:51:45;;;;;;;;;;;;;;;;;;5012800;28;20396;-44
2023/10/27 09:54:11;;;;;;;;;;;;;;;;;;5010362;28;19914;-45
2023/10/27 09:56:37;;;;;;;;;;;;;;;;;;5009229;28;20401;-42
2023/10/27 09:59:04;;;;;;;;;;;;;;;;;;4999480;28;19914;-42
2023/10/27 10:01:30;;;;;;;;;;;;;;;;;;5010507;28;19917;-43
2023/10/27 10:03:56;;;;;;;;;;;;;;;;;;5008439;28;19937;-44
2023/10/27 10:06:23;;;;;;;;;;;;;;;;;;5008083;28;20382;-44
2023/10/27 10:08:49;;;;;;;;;;;;;;;;;;5010508;28;19913;-46
2023/10/27 10:11:14;;;;;;;;;;;;;;;;;;5001663;28;20454;-44
2023/10/27 10:13:40;;;;;;;;;;;;;;;;;;5009876;28;19941;-43
2023/10/27 10:16:07;;;;;;;;;;;;;;;;;;4996203;28;19981;-43
2023/10/27 10:18:33;;;;;;;;;;;;;;;;;;5009559;28;20259;-44
2023/10/27 10:20:59;;;;;;;;;;;;;;;;;;4999234;28;19923;-46
2023/10/27 10:23:25;;;;;;;;;;;;;;;;;;4995022;28;19921;-44
2023/10/27 10:25:51;;;;;;;;;;;;;;;;;;4999231;28;20000;-47
2023/10/27 10:28:17;;;;;;;;;;;;;;;;;;4993528;28;19945;-45
2023/10/27 10:30:42;;;;;;;;;;;;;;;;;;4991643;28;19921;-43
2023/10/27 10:33:08;;;;;;;;;;;;;;;;;;5011748;28;20386;-44
2023/10/27 10:35:37;;;;;;;;;;;;;;;;;;5004673;28;19963;-43
2023/10/27 10:38:03;;;;;;;;;;;;;;;;;;5006593;28;19963;-45
2023/10/27 10:40:29;;;;;;;;;;;;;;;;;;4997807;28;20293;-47
2023/10/27 10:42:55;;;;;;;;;;;;;;;;;;5009221;28;19913;-46
2023/10/27 10:45:22;;;;;;;;;;;;;;;;;;5009158;28;19913;-43
2023/10/27 10:47:47;;;;;;;;;;;;;;;;;;5010302;28;19913;-44
2023/10/27 10:50:13;;;;;;;;;;;;;;;;;;5011204;28;19924;-44
2023/10/27 10:52:39;;;;;;;;;;;;;;;;;;5004290;28;20274;-43
2023/10/27 10:55:05;;;;;;;;;;;;;;;;;;5013813;28;19956;-45
2023/10/27 10:57:31;;;;;;;;;;;;;;;;;;5005599;28;19918;-46
2023/10/27 10:59:57;;;;;;;;;;;;;;;;;;5006734;28;19914;-46
2023/10/27 11:02:23;;;;;;;;;;;;;;;;;;5010512;28;19917;-45
2023/10/27 11:04:49;;;;;;;;;;;;;;;;;;5013387;28;19995;-44
2023/10/27 11:07:18;;;;;;;;;;;;;;;;;;5011624;28;19921;-44
2023/10/27 11:09:44;;;;;;;;;;;;;;;;;;5014859;28;19913;-45
2023/10/27 11:12:10;;;;;;;;;;;;;;;;;;5005331;28;19945;-44
2023/10/27 11:14:35;;;;;;;;;;;;;;;;;;5013730;28;19917;-44
2023/10/27 11:17:01;;;;;;;;;;;;;;;;;;5017825;28;19957;-45
2023/10/27 11:19:27;;;;;;;;;;;;;;;;;;5013760;28;19921;-43
2023/10/27 11:21:53;;;;;;;;;;;;;;;;;;5012722;28;20001;-46
2023/10/27 11:24:19;;;;;;;;;;;;;;;;;;5014430;28;19913;-46
2023/10/27 11:26:45;;;;;;;;;;;;;;;;;;5014163;28;19913;-46
2023/10/27 11:29:11;;;;;;;;;;;;;;;;;;5009352;28;19920;-44
2023/10/27 11:31:40;;;;;;;;;;;;;;;;;;5013714;28;19918;-46
2023/10/27 11:34:06;;;;;;;;;;;;;;;;;;5013964;28;20345;-47
2023/10/27 11:36:33;;;;;;;;;;;;;;;;;;5014615;28;19913;-45
2023/10/27 11:38:59;;;;;;;;;;;;;;;;;;5008960;28;20008;-45
2023/10/27 11:41:25;;;;;;;;;;;;;;;;;;5009005;28;19992;-46
2023/10/27 11:43:51;;;;;;;;;;;;;;;;;;5010329;28;19993;-47
2023/10/27 11:46:17;;;;;;;;;;;;;;;;;;5004366;28;19914;-46
2023/10/27 11:48:43;;;;;;;;;;;;;;;;;;5011485;28;19920;-44
2023/10/27 11:51:09;;;;;;;;;;;;;;;;;;5003835;28;20543;-48
2023/10/27 11:53:35;;;;;;;;;;;;;;;;;;5000105;28;20328;-46
2023/10/27 11:56:03;;;;;;;;;;;;;;;;;;5010739;28;19928;-48
2023/10/27 11:58:29;;;;;;;;;;;;;;;;;;4994060;28;19993;-45
2023/10/27 12:00:54;;;;;;;;;;;;;;;;;;4993754;28;19980;-49
2023/10/27 12:03:21;;;;;;;;;;;;;;;;;;4993976;28;19911;-46
2023/10/27 12:05:46;;;;;;;;;;;;;;;;;;4994107;28;19933;-47
2023/10/27 12:08:12;;;;;;;;;;;;;;;;;;4993510;28;19976;-46
2023/10/27 12:10:38;;;;;;;;;;;;;;;;;;4993657;28;19956;-46
2023/10/27 12:13:06;;;;;;;;;;;;;;;;;;4992988;28;20088;-45
2023/10/27 12:15:33;;;;;;;;;;;;;;;;;;4993700;28;19917;-45
2023/10/27 12:17:59;;;;;;;;;;;;;;;;;;4993259;28;19910;-46
2023/10/27 12:20:26;;;;;;;;;;;;;;;;;;4993520;28;19925;-49
2023/10/27 12:22:54;;;;;;;;;;;;;;;;;;4994004;28;20003;-46
2023/10/27 12:25:20;;;;;;;;;;;;;;;;;;4993454;28;19917;-49
2023/10/27 12:27:46;;;;;;;;;;;;;;;;;;4993093;28;19910;-45
2023/10/27 12:30:12;;;;;;;;;;;;;;;;;;4993869;28;20416;-48
2023/10/27 12:32:38;;;;;;;;;;;;;;;;;;4993257;28;19960;-49
2023/10/27 12:35:04;;;;;;;;;;;;;;;;;;4993497;28;19920;-48
2023/10/27 12:37:31;;;;;;;;;;;;;;;;;;5005799;28;19971;-46
2023/10/27 12:39:56;;;;;;;;;;;;;;;;;;5012761;28;19972;-47
2023/10/27 12:42:22;;;;;;;;;;;;;;;;;;5012755;28;20389;-48
2023/10/27 12:44:50;;;;;;;;;;;;;;;;;;4997383;28;19937;-45
2023/10/27 12:47:16;;;;;;;;;;;;;;;;;;4993459;28;19910;-48
2023/10/27 12:49:42;;;;;;;;;;;;;;;;;;4993435;28;19960;-48
2023/10/27 12:52:08;;;;;;;;;;;;;;;;;;5004725;28;19920;-45
2023/10/27 12:54:33;;;;;;;;;;;;;;;;;;5012712;28;19913;-48
2023/10/27 12:56:59;;;;;;;;;;;;;;;;;;5012476;28;19909;-48
2023/10/27 12:59:25;;;;;;;;;;;;;;;;;;5012608;28;19910;-48
2023/10/27 13:01:51;;;;;;;;;;;;;;;;;;5012263;28;20401;-45
2023/10/27 13:04:17;;;;;;;;;;;;;;;;;;5012607;28;19914;-45
2023/10/27 13:06:44;;;;;;;;;;;;;;;;;;5011575;28;19914;-47
2023/10/27 13:09:10;;;;;;;;;;;;;;;;;;5012415;28;19909;-46
2023/10/27 13:11:36;;;;;;;;;;;;;;;;;;5012280;28;19916;-47
2023/10/27 13:14:02;;;;;;;;;;;;;;;;;;5012125;28;19917;-47
2023/10/27 13:16:28;;;;;;;;;;;;;;;;;;5011016;28;19922;-47
2023/10/27 13:18:54;;;;;;;;;;;;;;;;;;5010421;28;19918;-47
2023/10/27 13:21:20;;;;;;;;;;;;;;;;;;5012087;28;19944;-50
2023/10/27 13:23:46;;;;;;;;;;;;;;;;;;5012304;28;19994;-48
2023/10/27 13:26:11;;;;;;;;;;;;;;;;;;5010981;28;19916;-46
2023/10/27 13:28:37;;;;;;;;;;;;;;;;;;5011737;28;19937;-49
2023/10/27 13:31:03;;;;;;;;;;;;;;;;;;5011910;28;19937;-46
2023/10/27 13:33:30;;;;;;;;;;;;;;;;;;5011963;28;19963;-48
2023/10/27 13:35:55;;;;;;;;;;;;;;;;;;4996007;28;19917;-45
2023/10/27 13:38:21;;;;;;;;;;;;;;;;;;5002234;28;19916;-48
2023/10/27 13:40:47;;;;;;;;;;;;;;;;;;5003647;28;19922;-45
2023/10/27 13:43:14;;;;;;;;;;;;;;;;;;5010223;28;19968;-46
2023/10/27 13:45:40;;;;;;;;;;;;;;;;;;5010345;28;19910;-46
2023/10/27 13:48:08;;;;;;;;;;;;;;;;;;5010314;28;20156;-48
2023/10/27 13:50:34;;;;;;;;;;;;;;;;;;5010291;28;19909;-48
2023/10/27 13:53:00;;;;;;;;;;;;;;;;;;5010179;28;19909;-47
2023/10/27 13:55:26;;;;;;;;;;;;;;;;;;5010220;28;20408;-45
2023/10/27 13:57:52;;;;;;;;;;;;;;;;;;5009994;28;19975;-47
2023/10/27 14:00:18;;;;;;;;;;;;;;;;;;5010347;28;19917;-48
2023/10/27 14:02:44;;;;;;;;;;;;;;;;;;5010296;28;19910;-48
2023/10/27 14:05:12;;;;;;;;;;;;;;;;;;5010036;28;19913;-50
2023/10/27 14:07:38;;;;;;;;;;;;;;;;;;5010022;28;19910;-47
2023/10/27 14:10:03;;;;;;;;;;;;;;;;;;5004995;28;20433;-48
2023/10/27 14:12:29;;;;;;;;;;;;;;;;;;4998282;28;20211;-46
2023/10/27 14:14:55;;;;;;;;;;;;;;;;;;5002531;28;19924;-48
2023/10/27 14:17:21;;;;;;;;;;;;;;;;;;5002752;28;19921;-45
2023/10/27 14:19:49;;;;;;;;;;;;;;;;;;4990381;28;19924;-48
2023/10/27 14:22:15;;;;;;;;;;;;;;;;;;4990591;28;20345;-45
2023/10/27 14:24:41;;;;;;;;;;;;;;;;;;4989677;28;19975;-48
2023/10/27 14:27:06;;;;;;;;;;;;;;;;;;5001556;28;19956;-46
2023/10/27 14:29:32;;;;;;;;;;;;;;;;;;5009399;28;20453;-47
2023/10/27 14:31:58;;;;;;;;;;;;;;;;;;5009683;28;19916;-46
2023/10/27 14:34:24;;;;;;;;;;;;;;;;;;5009771;28;19976;-47
2023/10/27 14:36:50;;;;;;;;;;;;;;;;;;5009205;28;20392;-46
2023/10/27 14:39:16;;;;;;;;;;;;;;;;;;5009811;28;19913;-44
2023/10/27 14:41:42;;;;;;;;;;;;;;;;;;5009892;28;19914;-47
2023/10/27 14:44:08;;;;;;;;;;;;;;;;;;5009377;28;19909;-47
2023/10/27 14:46:34;;;;;;;;;;;;;;;;;;5009618;28;20477;-46
2023/10/27 14:49:00;;;;;;;;;;;;;;;;;;5009397;28;20000;-46
2023/10/27 14:51:26;;;;;;;;;;;;;;;;;;5009420;28;19910;-48
2023/10/27 14:53:51;;;;;;;;;;;;;;;;;;5009603;28;19975;-48
2023/10/27 14:56:17;;;;;;;;;;;;;;;;;;5009740;28;19913;-48
2023/10/27 14:58:43;;;;;;;;;;;;;;;;;;5009158;28;19913;-47
2023/10/27 15:01:10;;;;;;;;;;;;;;;;;;5009446;28;19910;-47
2023/10/27 15:03:37;;;;;;;;;;;;;;;;;;5009237;28;20052;-47
2023/10/27 15:06:03;;;;;;;;;;;;;;;;;;5008903;28;19914;-46
2023/10/27 15:08:28;;;;;;;;;;;;;;;;;;5009263;28;19921;-46
2023/10/27 15:10:54;;;;;;;;;;;;;;;;;;5009407;28;20164;-45
2023/10/27 15:13:21;;;;;;;;;;;;;;;;;;5007441;28;19917;-49
2023/10/27 15:15:46;;;;;;;;;;;;;;;;;;4989591;28;19925;-48
2023/10/27 15:18:12;;;;;;;;;;;;;;;;;;4989277;28;20411;-47
2023/10/27 15:20:38;;;;;;;;;;;;;;;;;;4989749;28;20326;-46
2023/10/27 15:23:04;;;;;;;;;;;;;;;;;;4989845;28;19910;-49
2023/10/27 15:25:30;;;;;;;;;;;;;;;;;;4989855;28;19914;-46
2023/10/27 15:27:56;;;;;;;;;;;;;;;;;;4989540;28;19910;-45
2023/10/27 15:30:22;;;;;;;;;;;;;;;;;;4989691;28;19914;-47
2023/10/27 15:32:48;;;;;;;;;;;;;;;;;;4989952;28;19917;-50
2023/10/27 15:35:14;;;;;;;;;;;;;;;;;;4989278;28;19918;-46
2023/10/27 15:37:40;;;;;;;;;;;;;;;;;;5008923;28;19949;-48
2023/10/27 15:40:06;;;;;;;;;;;;;;;;;;5007315;28;20433;-46
2023/10/27 15:42:31;;;;;;;;;;;;;;;;;;4989453;28;19937;-46
2023/10/27 15:44:59;;;;;;;;;;;;;;;;;;4989343;28;19960;-45
2023/10/27 15:47:25;;;;;;;;;;;;;;;;;;4989554;28;20343;-47
2023/10/27 15:49:51;;;;;;;;;;;;;;;;;;4992927;28;20004;-46
2023/10/27 15:52:18;;;;;;;;;;;;;;;;;;4993036;28;19976;-49
2023/10/27 15:54:44;;;;;;;;;;;;;;;;;;4993090;28;19949;-46
2023/10/27 15:57:10;;;;;;;;;;;;;;;;;;5012457;28;19909;-47
2023/10/27 15:59:36;;;;;;;;;;;;;;;;;;5012233;28;19910;-46
2023/10/27 16:02:03;;;;;;;;;;;;;;;;;;5012361;28;19913;-45
2023/10/27 16:04:29;;;;;;;;;;;;;;;;;;5012249;28;19909;-46
2023/10/27 16:06:57;;;;;;;;;;;;;;;;;;5012384;28;19916;-45
2023/10/27 16:09:23;;;;;;;;;;;;;;;;;;5012627;28;19909;-45
2023/10/27 16:11:52;;;;;;;;;;;;;;;;;;5012366;28;19916;-50
2023/10/27 16:14:17;;;;;;;;;;;;;;;;;;5012230;28;19956;-45
2023/10/27 16:16:46;;;;;;;;;;;;;;;;;;5012188;28;19917;-47
2023/10/27 16:19:11;;;;;;;;;;;;;;;;;;5004891;28;19917;-49
2023/10/27 16:21:37;;;;;;;;;;;;;;;;;;4975169;28;19956;-46
2023/10/27 16:24:03;;;;;;;;;;;;;;;;;;5000759;28;19960;-47
2023/10/27 16:26:29;;;;;;;;;;;;;;;;;;5007349;28;19956;-49
2023/10/27 16:28:55;;;;;;;;;;;;;;;;;;4992615;28;19909;-50
2023/10/27 16:31:21;;;;;;;;;;;;;;;;;;4993372;28;20387;-49
2023/10/27 16:33:47;;;;;;;;;;;;;;;;;;5009903;28;20386;-50
2023/10/27 16:36:13;;;;;;;;;;;;;;;;;;4998826;28;19926;-46
2023/10/27 16:38:39;;;;;;;;;;;;;;;;;;4993796;28;19913;-47
2023/10/27 16:41:05;;;;;;;;;;;;;;;;;;5008529;28;19918;-48
2023/10/27 16:43:36;;;;;;;;;;;;;;;;;;5014144;28;20082;-47
2023/10/27 16:46:04;;;;;;;;;;;;;;;;;;5022739;28;19924;-46
2023/10/27 16:48:31;;;;;;;;;;;;;;;;;;5016064;28;19914;-46
2023/10/27 16:50:56;;;;;;;;;;;;;;;;;;5011843;28;19909;-44
2023/10/27 16:53:22;;;;;;;;;;;;;;;;;;5007506;28;19913;-44
2023/10/27 16:55:48;;;;;;;;;;;;;;;;;;5012480;28;19976;-45
2023/10/27 16:58:15;;;;;;;;;;;;;;;;;;5012359;28;20378;-46
2023/10/27 17:00:41;;;;;;;;;;;;;;;;;;5012129;28;19909;-46
2023/10/27 17:03:07;;;;;;;;;;;;;;;;;;5009674;28;19916;-48
2023/10/27 17:05:33;;;;;;;;;;;;;;;;;;5012270;28;20294;-47
2023/10/27 17:07:59;;;;;;;;;;;;;;;;;;5011166;28;19918;-48
2023/10/27 17:10:25;;;;;;;;;;;;;;;;;;5011830;28;19956;-46
2023/10/27 17:12:52;;;;;;;;;;;;;;;;;;5004278;28;19956;-44
2023/10/27 17:15:18;;;;;;;;;;;;;;;;;;4990913;28;19913;-46
2023/10/27 17:17:44;;;;;;;;;;;;;;;;;;4998862;28;20449;-46
2023/10/27 17:20:10;;;;;;;;;;;;;;;;;;5009827;28;19963;-46
2023/10/27 17:22:36;;;;;;;;;;;;;;;;;;5004167;28;19913;-47
2023/10/27 17:25:03;;;;;;;;;;;;;;;;;;4993071;28;20429;-47
2023/10/27 17:27:30;;;;;;;;;;;;;;;;;;5002664;28;20268;-47
2023/10/27 17:29:58;;;;;;;;;;;;;;;;;;5007456;28;19924;-46
2023/10/27 17:32:26;;;;;;;;;;;;;;;;;;5008393;28;19921;-47
2023/10/27 17:34:52;;;;;;;;;;;;;;;;;;5007944;28;20302;-48
2023/10/27 17:37:18;;;;;;;;;;;;;;;;;;5008107;28;19913;-46
2023/10/27 17:39:44;;;;;;;;;;;;;;;;;;5010339;28;20047;-46
2023/10/27 17:42:10;;;;;;;;;;;;;;;;;;5011243;28;20004;-45
2023/10/27 17:44:37;;;;;;;;;;;;;;;;;;5015650;28;20344;-47
2023/10/27 17:47:03;;;;;;;;;;;;;;;;;;5009994;28;19916;-48
2023/10/27 17:49:29;;;;;;;;;;;;;;;;;;5007923;28;20286;-46
2023/10/27 17:51:55;;;;;;;;;;;;;;;;;;5009936;28;19909;-47
2023/10/27 17:54:21;;;;;;;;;;;;;;;;;;5005741;28;19921;-46
2023/10/27 17:56:47;;;;;;;;;;;;;;;;;;5010648;28;19920;-49
2023/10/27 17:59:14;;;;;;;;;;;;;;;;;;5010408;28;19909;-45
2023/10/27 18:01:40;;;;;;;;;;;;;;;;;;5009854;28;19910;-48
2023/10/27 18:04:06;;;;;;;;;;;;;;;;;;5010047;28;20024;-48
2023/10/27 18:06:32;;;;;;;;;;;;;;;;;;5009959;28;20492;-48
2023/10/27 18:08:59;;;;;;;;;;;;;;;;;;5009089;28;20222;-49
2023/10/27 18:11:25;;;;;;;;;;;;;;;;;;5009284;28;19979;-45
2023/10/27 18:13:51;;;;;;;;;;;;;;;;;;5009853;28;20004;-45
2023/10/27 18:16:17;;;;;;;;;;;;;;;;;;5010291;28;19914;-46
2023/10/27 18:18:43;;;;;;;;;;;;;;;;;;5004814;28;20493;-45
2023/10/27 18:21:12;;;;;;;;;;;;;;;;;;5006715;28;19921;-51
2023/10/27 18:23:38;;;;;;;;;;;;;;;;;;4995565;28;20008;-46
2023/10/27 18:26:03;;;;;;;;;;;;;;;;;;5007681;28;20000;-49
2023/10/27 18:28:30;;;;;;;;;;;;;;;;;;5007814;28;20305;-46
2023/10/27 18:30:56;;;;;;;;;;;;;;;;;;5007426;28;19917;-49
2023/10/27 18:33:22;;;;;;;;;;;;;;;;;;5007786;28;19921;-48
2023/10/27 18:35:50;;;;;;;;;;;;;;;;;;5007599;28;19921;-46
2023/10/27 18:38:16;;;;;;;;;;;;;;;;;;5004011;28;19913;-48
2023/10/27 18:40:43;;;;;;;;;;;;;;;;;;5007810;28;20012;-46
2023/10/27 18:43:10;;;;;;;;;;;;;;;;;;5005643;28;19963;-45
2023/10/27 18:45:37;;;;;;;;;;;;;;;;;;5006901;28;19925;-46
2023/10/27 18:48:04;;;;;;;;;;;;;;;;;;4999381;28;20271;-48
2023/10/27 18:50:30;;;;;;;;;;;;;;;;;;4976766;28;19921;-49
2023/10/27 18:52:59;;;;;;;;;;;;;;;;;;5004330;28;19910;-48
2023/10/27 18:55:25;;;;;;;;;;;;;;;;;;5006904;28;19918;-48
2023/10/27 18:57:51;;;;;;;;;;;;;;;;;;5011348;28;20286;-47
2023/10/27 19:00:22;;;;;;;;;;;;;;;;;;5003338;28;19921;-48
2023/10/27 19:02:49;;;;;;;;;;;;;;;;;;4994405;28;20449;-49
2023/10/27 19:05:15;;;;;;;;;;;;;;;;;;5006646;28;20011;-47
2023/10/27 19:07:41;;;;;;;;;;;;;;;;;;5007557;28;20326;-46
2023/10/27 19:10:10;;;;;;;;;;;;;;;;;;5004076;28;20055;-45
2023/10/27 19:12:36;;;;;;;;;;;;;;;;;;5008074;28;19917;-50
2023/10/27 19:15:02;;;;;;;;;;;;;;;;;;5000283;28;20283;-49
2023/10/27 19:17:29;;;;;;;;;;;;;;;;;;5005138;28;19928;-49
2023/10/27 19:19:55;;;;;;;;;;;;;;;;;;5003263;28;19958;-47
2023/10/27 19:22:20;;;;;;;;;;;;;;;;;;5007366;28;19909;-44
2023/10/27 19:24:47;;;;;;;;;;;;;;;;;;5013602;28;19909;-48
2023/10/27 19:27:13;;;;;;;;;;;;;;;;;;5011039;28;19960;-48
2023/10/27 19:29:39;;;;;;;;;;;;;;;;;;5007726;28;20381;-49
2023/10/27 19:32:04;;;;;;;;;;;;;;;;;;5009366;28;19913;-47
2023/10/27 19:34:30;;;;;;;;;;;;;;;;;;5009962;28;19936;-49
2023/10/27 19:36:57;;;;;;;;;;;;;;;;;;5005505;28;20000;-49
2023/10/27 19:39:22;;;;;;;;;;;;;;;;;;5005146;28;19914;-47
2023/10/27 19:41:48;;;;;;;;;;;;;;;;;;5005600;28;20271;-48
2023/10/27 19:44:14;;;;;;;;;;;;;;;;;;5025046;28;19910;-47
2023/10/27 19:46:40;;;;;;;;;;;;;;;;;;5010352;28;19914;-48
2023/10/27 19:49:07;;;;;;;;;;;;;;;;;;4993579;28;19914;-46
2023/10/27 19:51:33;;;;;;;;;;;;;;;;;;5013400;28;19921;-47
2023/10/27 19:53:59;;;;;;;;;;;;;;;;;;5014363;28;19920;-46
2023/10/27 19:56:25;;;;;;;;;;;;;;;;;;4993192;28;19914;-46
2023/10/27 19:58:52;;;;;;;;;;;;;;;;;;5008882;28;19924;-49
2023/10/27 20:01:18;;;;;;;;;;;;;;;;;;4998907;28;19968;-50
2023/10/27 20:03:44;;;;;;;;;;;;;;;;;;5014440;28;19925;-48
2023/10/27 20:06:11;;;;;;;;;;;;;;;;;;5007227;28;19914;-46
2023/10/27 20:08:39;;;;;;;;;;;;;;;;;;5016555;28;19922;-48
2023/10/27 20:11:16;;;;;;;;;;;;;;;;;;5005360;28;19924;-45
2023/10/27 20:13:43;;;;;;;;;;;;;;;;;;5009122;28;19916;-45
2023/10/27 20:16:10;;;;;;;;;;;;;;;;;;4998827;28;19933;-48
2023/10/27 20:18:36;;;;;;;;;;;;;;;;;;5012819;28;19956;-46
2023/10/27 20:21:05;;;;;;;;;;;;;;;;;;5022653;28;19909;-45
2023/10/27 20:23:31;;;;;;;;;;;;;;;;;;5010076;28;19917;-50
2023/10/27 20:25:57;;;;;;;;;;;;;;;;;;5006973;28;20063;-49
2023/10/27 20:28:24;;;;;;;;;;;;;;;;;;4998240;28;19918;-46
2023/10/27 20:30:50;;;;;;;;;;;;;;;;;;4992491;28;19918;-46
2023/10/27 20:33:16;;;;;;;;;;;;;;;;;;4999784;28;20121;-46
2023/10/27 20:35:41;;;;;;;;;;;;;;;;;;5010336;28;19924;-46
2023/10/27 20:38:07;;;;;;;;;;;;;;;;;;5013041;28;19927;-48
2023/10/27 20:40:34;;;;;;;;;;;;;;;;;;5010111;28;19917;-48
2023/10/27 20:43:00;;;;;;;;;;;;;;;;;;5010123;28;19914;-47
2023/10/27 20:45:25;;;;;;;;;;;;;;;;;;5009803;28;19910;-48
2023/10/27 20:47:51;;;;;;;;;;;;;;;;;;5009601;28;19992;-48
2023/10/27 20:50:20;;;;;;;;;;;;;;;;;;5006286;28;19921;-46
2023/10/27 20:52:46;;;;;;;;;;;;;;;;;;4981213;28;20359;-47
2023/10/27 20:55:19;;;;;;;;;;;;;;;;;;4989738;28;19924;-45
2023/10/27 20:57:45;;;;;;;;;;;;;;;;;;5005822;28;19913;-47
2023/10/27 21:00:11;;;;;;;;;;;;;;;;;;5009316;28;19910;-48
2023/10/27 21:02:37;;;;;;;;;;;;;;;;;;5009388;28;19909;-50
2023/10/27 21:05:04;;;;;;;;;;;;;;;;;;5007114;28;20266;-48
2023/10/27 21:07:30;;;;;;;;;;;;;;;;;;5023251;28;19916;-46
2023/10/27 21:09:55;;;;;;;;;;;;;;;;;;5009883;28;20000;-48
2023/10/27 21:12:22;;;;;;;;;;;;;;;;;;5007735;28;20379;-46
2023/10/27 21:14:48;;;;;;;;;;;;;;;;;;4989696;28;19925;-46
2023/10/27 21:17:14;;;;;;;;;;;;;;;;;;5004562;28;19914;-45
2023/10/27 21:19:40;;;;;;;;;;;;;;;;;;5004438;28;19918;-47
2023/10/27 21:22:06;;;;;;;;;;;;;;;;;;4989381;28;19917;-49
2023/10/27 21:24:32;;;;;;;;;;;;;;;;;;4989602;28;19914;-47
2023/10/27 21:26:58;;;;;;;;;;;;;;;;;;4989295;28;19917;-47
2023/10/27 21:29:24;;;;;;;;;;;;;;;;;;4989097;28;19909;-46
2023/10/27 21:31:50;;;;;;;;;;;;;;;;;;4989221;28;19917;-49
2023/10/27 21:34:16;;;;;;;;;;;;;;;;;;5004855;28;19921;-46
2023/10/27 21:36:42;;;;;;;;;;;;;;;;;;5009667;28;19917;-48
2023/10/27 21:39:09;;;;;;;;;;;;;;;;;;5008522;28;19909;-47
2023/10/27 21:41:35;;;;;;;;;;;;;;;;;;5008899;28;19917;-45
2023/10/27 21:44:01;;;;;;;;;;;;;;;;;;5008103;28;19909;-45
2023/10/27 21:46:27;;;;;;;;;;;;;;;;;;5008306;28;20000;-46
2023/10/27 21:48:53;;;;;;;;;;;;;;;;;;4993575;28;19914;-47
2023/10/27 21:51:19;;;;;;;;;;;;;;;;;;5010159;28;20702;-47
2023/10/27 21:53:45;;;;;;;;;;;;;;;;;;4990217;28;20012;-45
2023/10/27 21:56:11;;;;;;;;;;;;;;;;;;5024253;28;20008;-50